sensor_id;sensor_type;location;lat;lon;timestamp;P1;durP1;ratioP1;P2;durP2;ratioP2
76589;SDS011;65471;55.908;37.880;2023-03-21T00:02:02;27.52;;;10.20;;
76589;SDS011;65471;55.908;37.880;2023-03-21T00:04:29;25.17;;;10.55;;
76589;SDS011;65471;55.908;37.880;2023-03-21T00:07:15;33.70;;;9.23;;
76589;SDS011;65471;55.908;37.880;2023-03-21T00:09:42;23.38;;;10.13;;
76589;SDS011;65471;55.908;37.880;2023-03-21T00:12:09;30.23;;;10.77;;
76589;SDS011;65471;55.908;37.880;2023-03-21T00:14:37;23.20;;;9.80;;
76589;SDS011;65471;55.908;37.880;2023-03-21T00:17:04;28.92;;;10.60;;
76589;SDS011;65471;55.908;37.880;2023-03-21T00:19:31;21.00;;;9.85;;
76589;SDS011;65471;55.908;37.880;2023-03-21T00:21:58;16.45;;;9.10;;
76589;SDS011;65471;55.908;37.880;2023-03-21T00:24:47;15.32;;;8.45;;
76589;SDS011;65471;55.908;37.880;2023-03-21T00:27:14;26.52;;;8.70;;
76589;SDS011;65471;55.908;37.880;2023-03-21T00:30:01;24.42;;;8.60;;
76589;SDS011;65471;55.908;37.880;2023-03-21T00:32:28;26.00;;;9.25;;
76589;SDS011;65471;55.908;37.880;2023-03-21T00:34:55;19.15;;;8.63;;
76589;SDS011;65471;55.908;37.880;2023-03-21T00:37:42;25.23;;;9.23;;
76589;SDS011;65471;55.908;37.880;2023-03-21T00:40:09;21.35;;;8.25;;
76589;SDS011;65471;55.908;37.880;2023-03-21T00:42:50;25.42;;;8.80;;
76589;SDS011;65471;55.908;37.880;2023-03-21T00:45:17;16.38;;;8.20;;
76589;SDS011;65471;55.908;37.880;2023-03-21T00:47:44;21.70;;;9.40;;
76589;SDS011;65471;55.908;37.880;2023-03-21T00:50:11;27.90;;;8.95;;
76589;SDS011;65471;55.908;37.880;2023-03-21T00:52:38;16.13;;;8.50;;
76589;SDS011;65471;55.908;37.880;2023-03-21T00:55:08;22.15;;;8.93;;
76589;SDS011;65471;55.908;37.880;2023-03-21T00:57:39;17.90;;;7.80;;
76589;SDS011;65471;55.908;37.880;2023-03-21T01:00:08;24.60;;;8.75;;
76589;SDS011;65471;55.908;37.880;2023-03-21T01:02:36;19.63;;;8.05;;
76589;SDS011;65471;55.908;37.880;2023-03-21T01:05:03;11.90;;;7.60;;
76589;SDS011;65471;55.908;37.880;2023-03-21T01:07:30;17.83;;;8.02;;
76589;SDS011;65471;55.908;37.880;2023-03-21T01:09:57;18.95;;;8.13;;
76589;SDS011;65471;55.908;37.880;2023-03-21T01:12:24;27.15;;;8.48;;
76589;SDS011;65471;55.908;37.880;2023-03-21T01:14:51;12.32;;;7.93;;
76589;SDS011;65471;55.908;37.880;2023-03-21T01:17:17;26.20;;;8.38;;
76589;SDS011;65471;55.908;37.880;2023-03-21T01:19:44;15.57;;;7.55;;
76589;SDS011;65471;55.908;37.880;2023-03-21T01:22:17;21.20;;;7.90;;
76589;SDS011;65471;55.908;37.880;2023-03-21T01:24:45;15.98;;;7.43;;
76589;SDS011;65471;55.908;37.880;2023-03-21T01:27:22;20.40;;;7.50;;
76589;SDS011;65471;55.908;37.880;2023-03-21T01:29:48;30.67;;;8.60;;
76589;SDS011;65471;55.908;37.880;2023-03-21T01:32:15;19.83;;;7.90;;
76589;SDS011;65471;55.908;37.880;2023-03-21T01:34:42;16.23;;;7.65;;
76589;SDS011;65471;55.908;37.880;2023-03-21T01:37:09;15.60;;;8.20;;
76589;SDS011;65471;55.908;37.880;2023-03-21T01:39:36;22.73;;;7.93;;
76589;SDS011;65471;55.908;37.880;2023-03-21T01:42:03;13.90;;;7.82;;
76589;SDS011;65471;55.908;37.880;2023-03-21T01:44:29;21.63;;;8.45;;
76589;SDS011;65471;55.908;37.880;2023-03-21T01:46:57;21.80;;;8.05;;
76589;SDS011;65471;55.908;37.880;2023-03-21T01:49:40;22.38;;;8.52;;
76589;SDS011;65471;55.908;37.880;2023-03-21T01:52:13;14.13;;;7.60;;
76589;SDS011;65471;55.908;37.880;2023-03-21T01:54:55;16.92;;;8.23;;
76589;SDS011;65471;55.908;37.880;2023-03-21T01:57:24;17.73;;;7.97;;
76589;SDS011;65471;55.908;37.880;2023-03-21T02:00:09;20.23;;;7.40;;
76589;SDS011;65471;55.908;37.880;2023-03-21T02:02:42;18.35;;;7.70;;
76589;SDS011;65471;55.908;37.880;2023-03-21T02:05:18;23.42;;;7.95;;
76589;SDS011;65471;55.908;37.880;2023-03-21T02:07:54;16.23;;;7.60;;
76589;SDS011;65471;55.908;37.880;2023-03-21T02:10:21;21.88;;;7.43;;
76589;SDS011;65471;55.908;37.880;2023-03-21T02:12:48;17.23;;;8.30;;
76589;SDS011;65471;55.908;37.880;2023-03-21T02:15:15;26.73;;;9.10;;
76589;SDS011;65471;55.908;37.880;2023-03-21T02:23:51;20.38;;;8.35;;
76589;SDS011;65471;55.908;37.880;2023-03-21T02:26:45;32.65;;;8.93;;
76589;SDS011;65471;55.908;37.880;2023-03-21T02:32:01;20.05;;;8.25;;
76589;SDS011;65471;55.908;37.880;2023-03-21T02:37:39;21.30;;;8.50;;
76589;SDS011;65471;55.908;37.880;2023-03-21T02:40:24;13.60;;;8.10;;
76589;SDS011;65471;55.908;37.880;2023-03-21T02:45:43;27.75;;;8.20;;
76589;SDS011;65471;55.908;37.880;2023-03-21T02:48:17;13.77;;;7.82;;
76589;SDS011;65471;55.908;37.880;2023-03-21T02:51:15;10.25;;;7.60;;
76589;SDS011;65471;55.908;37.880;2023-03-21T02:54:12;15.95;;;7.95;;
76589;SDS011;65471;55.908;37.880;2023-03-21T02:57:00;17.92;;;7.43;;
76589;SDS011;65471;55.908;37.880;2023-03-21T02:59:29;14.63;;;7.60;;
76589;SDS011;65471;55.908;37.880;2023-03-21T03:02:00;25.30;;;7.65;;
76589;SDS011;65471;55.908;37.880;2023-03-21T03:04:28;13.13;;;7.38;;
76589;SDS011;65471;55.908;37.880;2023-03-21T03:18:05;13.45;;;7.00;;
76589;SDS011;65471;55.908;37.880;2023-03-21T03:21:01;20.52;;;7.68;;
76589;SDS011;65471;55.908;37.880;2023-03-21T03:23:49;16.33;;;7.30;;
76589;SDS011;65471;55.908;37.880;2023-03-21T03:29:23;9.98;;;7.63;;
76589;SDS011;65471;55.908;37.880;2023-03-21T03:31:57;11.05;;;7.32;;
76589;SDS011;65471;55.908;37.880;2023-03-21T03:34:36;18.75;;;7.03;;
76589;SDS011;65471;55.908;37.880;2023-03-21T03:37:08;12.15;;;7.10;;
76589;SDS011;65471;55.908;37.880;2023-03-21T03:39:49;18.23;;;7.65;;
76589;SDS011;65471;55.908;37.880;2023-03-21T03:42:28;12.63;;;6.82;;
76589;SDS011;65471;55.908;37.880;2023-03-21T03:44:59;17.88;;;6.88;;
76589;SDS011;65471;55.908;37.880;2023-03-21T03:50:15;14.23;;;7.38;;
76589;SDS011;65471;55.908;37.880;2023-03-21T03:52:52;14.77;;;7.20;;
76589;SDS011;65471;55.908;37.880;2023-03-21T03:55:28;20.27;;;7.15;;
76589;SDS011;65471;55.908;37.880;2023-03-21T03:58:00;14.25;;;7.28;;
76589;SDS011;65471;55.908;37.880;2023-03-21T04:00:31;16.55;;;7.20;;
76589;SDS011;65471;55.908;37.880;2023-03-21T04:02:59;21.50;;;8.25;;
76589;SDS011;65471;55.908;37.880;2023-03-21T04:05:26;20.13;;;7.05;;
76589;SDS011;65471;55.908;37.880;2023-03-21T04:07:53;17.55;;;7.68;;
76589;SDS011;65471;55.908;37.880;2023-03-21T04:10:20;10.30;;;7.38;;
76589;SDS011;65471;55.908;37.880;2023-03-21T04:12:48;11.65;;;6.88;;
76589;SDS011;65471;55.908;37.880;2023-03-21T04:15:15;28.95;;;7.45;;
76589;SDS011;65471;55.908;37.880;2023-03-21T04:20:11;18.83;;;7.38;;
76589;SDS011;65471;55.908;37.880;2023-03-21T04:22:55;10.45;;;7.07;;
76589;SDS011;65471;55.908;37.880;2023-03-21T04:25:22;19.95;;;8.40;;
76589;SDS011;65471;55.908;37.880;2023-03-21T04:27:59;21.48;;;8.07;;
76589;SDS011;65471;55.908;37.880;2023-03-21T04:30:26;19.70;;;7.80;;
76589;SDS011;65471;55.908;37.880;2023-03-21T04:32:53;23.88;;;8.40;;
76589;SDS011;65471;55.908;37.880;2023-03-21T04:35:22;24.73;;;8.80;;
76589;SDS011;65471;55.908;37.880;2023-03-21T04:37:50;22.00;;;7.53;;
76589;SDS011;65471;55.908;37.880;2023-03-21T04:40:17;12.07;;;7.43;;
76589;SDS011;65471;55.908;37.880;2023-03-21T04:42:45;17.58;;;7.55;;
76589;SDS011;65471;55.908;37.880;2023-03-21T04:45:13;19.08;;;8.57;;
76589;SDS011;65471;55.908;37.880;2023-03-21T04:47:41;23.98;;;9.18;;
76589;SDS011;65471;55.908;37.880;2023-03-21T04:50:09;20.77;;;9.05;;
76589;SDS011;65471;55.908;37.880;2023-03-21T04:52:36;16.50;;;8.18;;
76589;SDS011;65471;55.908;37.880;2023-03-21T04:55:03;14.30;;;7.55;;
76589;SDS011;65471;55.908;37.880;2023-03-21T04:57:31;15.05;;;8.43;;
76589;SDS011;65471;55.908;37.880;2023-03-21T04:59:57;21.83;;;8.18;;
76589;SDS011;65471;55.908;37.880;2023-03-21T05:02:24;20.10;;;8.10;;
76589;SDS011;65471;55.908;37.880;2023-03-21T05:04:51;13.38;;;8.00;;
76589;SDS011;65471;55.908;37.880;2023-03-21T05:07:18;17.73;;;8.20;;
76589;SDS011;65471;55.908;37.880;2023-03-21T05:09:45;22.55;;;8.57;;
76589;SDS011;65471;55.908;37.880;2023-03-21T05:12:12;13.15;;;6.65;;
76589;SDS011;65471;55.908;37.880;2023-03-21T05:14:38;15.07;;;8.50;;
76589;SDS011;65471;55.908;37.880;2023-03-21T05:17:05;24.30;;;8.80;;
76589;SDS011;65471;55.908;37.880;2023-03-21T05:19:32;18.60;;;8.70;;
76589;SDS011;65471;55.908;37.880;2023-03-21T05:22:06;31.85;;;9.48;;
76589;SDS011;65471;55.908;37.880;2023-03-21T05:24:35;32.88;;;9.43;;
76589;SDS011;65471;55.908;37.880;2023-03-21T05:27:04;22.30;;;8.32;;
76589;SDS011;65471;55.908;37.880;2023-03-21T05:29:31;27.70;;;9.43;;
76589;SDS011;65471;55.908;37.880;2023-03-21T05:31:59;31.67;;;9.02;;
76589;SDS011;65471;55.908;37.880;2023-03-21T05:34:27;20.95;;;8.65;;
76589;SDS011;65471;55.908;37.880;2023-03-21T05:36:54;31.80;;;8.43;;
76589;SDS011;65471;55.908;37.880;2023-03-21T05:39:21;21.80;;;9.02;;
76589;SDS011;65471;55.908;37.880;2023-03-21T05:41:48;24.40;;;7.70;;
76589;SDS011;65471;55.908;37.880;2023-03-21T05:44:15;16.88;;;8.45;;
76589;SDS011;65471;55.908;37.880;2023-03-21T05:46:42;13.45;;;7.90;;
76589;SDS011;65471;55.908;37.880;2023-03-21T05:49:09;13.13;;;7.57;;
76589;SDS011;65471;55.908;37.880;2023-03-21T05:51:37;29.25;;;8.23;;
76589;SDS011;65471;55.908;37.880;2023-03-21T05:54:04;16.88;;;7.95;;
76589;SDS011;65471;55.908;37.880;2023-03-21T05:56:32;18.52;;;8.50;;
76589;SDS011;65471;55.908;37.880;2023-03-21T05:58:58;30.48;;;9.05;;
76589;SDS011;65471;55.908;37.880;2023-03-21T06:01:25;28.45;;;8.75;;
76589;SDS011;65471;55.908;37.880;2023-03-21T06:03:52;23.38;;;8.95;;
76589;SDS011;65471;55.908;37.880;2023-03-21T06:06:19;16.95;;;9.10;;
76589;SDS011;65471;55.908;37.880;2023-03-21T06:08:46;27.25;;;8.57;;
76589;SDS011;65471;55.908;37.880;2023-03-21T06:11:19;30.85;;;8.88;;
76589;SDS011;65471;55.908;37.880;2023-03-21T06:13:51;15.38;;;10.52;;
76589;SDS011;65471;55.908;37.880;2023-03-21T06:16:18;16.60;;;8.70;;
76589;SDS011;65471;55.908;37.880;2023-03-21T06:18:45;22.38;;;9.35;;
76589;SDS011;65471;55.908;37.880;2023-03-21T06:21:11;29.33;;;8.45;;
76589;SDS011;65471;55.908;37.880;2023-03-21T06:23:38;29.83;;;9.63;;
76589;SDS011;65471;55.908;37.880;2023-03-21T06:26:05;21.88;;;8.63;;
76589;SDS011;65471;55.908;37.880;2023-03-21T06:28:33;24.70;;;9.48;;
76589;SDS011;65471;55.908;37.880;2023-03-21T06:30:59;33.20;;;9.63;;
76589;SDS011;65471;55.908;37.880;2023-03-21T06:33:26;30.75;;;9.45;;
76589;SDS011;65471;55.908;37.880;2023-03-21T06:35:54;43.28;;;11.07;;
76589;SDS011;65471;55.908;37.880;2023-03-21T06:38:23;37.95;;;12.73;;
76589;SDS011;65471;55.908;37.880;2023-03-21T06:40:50;38.55;;;12.15;;
76589;SDS011;65471;55.908;37.880;2023-03-21T06:43:18;33.88;;;10.90;;
76589;SDS011;65471;55.908;37.880;2023-03-21T06:45:45;26.15;;;11.02;;
76589;SDS011;65471;55.908;37.880;2023-03-21T06:48:11;25.15;;;10.57;;
76589;SDS011;65471;55.908;37.880;2023-03-21T06:50:38;31.77;;;11.20;;
76589;SDS011;65471;55.908;37.880;2023-03-21T06:53:06;28.42;;;9.23;;
76589;SDS011;65471;55.908;37.880;2023-03-21T06:55:32;30.38;;;10.35;;
76589;SDS011;65471;55.908;37.880;2023-03-21T06:57:59;33.38;;;10.13;;
76589;SDS011;65471;55.908;37.880;2023-03-21T07:00:26;25.60;;;9.85;;
76589;SDS011;65471;55.908;37.880;2023-03-21T07:02:53;22.50;;;9.27;;
76589;SDS011;65471;55.908;37.880;2023-03-21T07:05:20;21.65;;;9.52;;
76589;SDS011;65471;55.908;37.880;2023-03-21T07:07:46;19.40;;;9.65;;
76589;SDS011;65471;55.908;37.880;2023-03-21T07:10:14;22.27;;;10.13;;
76589;SDS011;65471;55.908;37.880;2023-03-21T07:12:41;20.63;;;9.32;;
76589;SDS011;65471;55.908;37.880;2023-03-21T07:15:08;18.40;;;10.00;;
76589;SDS011;65471;55.908;37.880;2023-03-21T07:17:35;27.80;;;9.88;;
76589;SDS011;65471;55.908;37.880;2023-03-21T07:20:02;15.75;;;9.20;;
76589;SDS011;65471;55.908;37.880;2023-03-21T07:22:33;16.65;;;10.13;;
76589;SDS011;65471;55.908;37.880;2023-03-21T07:25:01;13.50;;;8.23;;
76589;SDS011;65471;55.908;37.880;2023-03-21T07:27:30;28.17;;;10.57;;
76589;SDS011;65471;55.908;37.880;2023-03-21T07:29:57;22.02;;;9.57;;
76589;SDS011;65471;55.908;37.880;2023-03-21T07:32:24;28.92;;;9.68;;
76589;SDS011;65471;55.908;37.880;2023-03-21T07:34:55;18.13;;;8.45;;
76589;SDS011;65471;55.908;37.880;2023-03-21T07:37:22;13.15;;;9.02;;
76589;SDS011;65471;55.908;37.880;2023-03-21T07:39:49;17.20;;;8.13;;
76589;SDS011;65471;55.908;37.880;2023-03-21T07:42:16;14.57;;;8.55;;
76589;SDS011;65471;55.908;37.880;2023-03-21T07:44:43;16.48;;;9.80;;
76589;SDS011;65471;55.908;37.880;2023-03-21T07:47:10;20.17;;;9.35;;
76589;SDS011;65471;55.908;37.880;2023-03-21T07:49:37;15.18;;;8.70;;
76589;SDS011;65471;55.908;37.880;2023-03-21T07:52:04;25.65;;;9.52;;
76589;SDS011;65471;55.908;37.880;2023-03-21T07:54:33;13.43;;;9.40;;
76589;SDS011;65471;55.908;37.880;2023-03-21T07:56:59;18.63;;;8.75;;
76589;SDS011;65471;55.908;37.880;2023-03-21T07:59:26;22.05;;;9.10;;
76589;SDS011;65471;55.908;37.880;2023-03-21T08:01:53;14.13;;;9.18;;
76589;SDS011;65471;55.908;37.880;2023-03-21T08:04:20;16.65;;;9.18;;
76589;SDS011;65471;55.908;37.880;2023-03-21T08:06:49;21.90;;;8.30;;
76589;SDS011;65471;55.908;37.880;2023-03-21T08:09:16;23.83;;;9.73;;
76589;SDS011;65471;55.908;37.880;2023-03-21T08:11:43;15.43;;;8.43;;
76589;SDS011;65471;55.908;37.880;2023-03-21T08:14:10;23.95;;;8.88;;
76589;SDS011;65471;55.908;37.880;2023-03-21T08:16:36;18.50;;;10.30;;
76589;SDS011;65471;55.908;37.880;2023-03-21T08:19:03;14.93;;;9.20;;
76589;SDS011;65471;55.908;37.880;2023-03-21T08:21:30;14.13;;;8.80;;
76589;SDS011;65471;55.908;37.880;2023-03-21T08:23:57;14.55;;;8.70;;
76589;SDS011;65471;55.908;37.880;2023-03-21T08:26:24;16.00;;;8.45;;
76589;SDS011;65471;55.908;37.880;2023-03-21T08:28:51;19.27;;;8.20;;
76589;SDS011;65471;55.908;37.880;2023-03-21T08:31:18;18.85;;;9.35;;
76589;SDS011;65471;55.908;37.880;2023-03-21T08:33:47;14.27;;;8.95;;
76589;SDS011;65471;55.908;37.880;2023-03-21T08:36:19;11.80;;;8.20;;
76589;SDS011;65471;55.908;37.880;2023-03-21T08:38:47;22.08;;;8.85;;
76589;SDS011;65471;55.908;37.880;2023-03-21T08:41:18;14.80;;;8.80;;
76589;SDS011;65471;55.908;37.880;2023-03-21T08:43:47;26.58;;;8.88;;
76589;SDS011;65471;55.908;37.880;2023-03-21T08:46:14;15.50;;;7.57;;
76589;SDS011;65471;55.908;37.880;2023-03-21T08:48:41;20.70;;;9.60;;
76589;SDS011;65471;55.908;37.880;2023-03-21T08:51:08;22.13;;;10.10;;
76589;SDS011;65471;55.908;37.880;2023-03-21T08:53:35;14.82;;;9.57;;
76589;SDS011;65471;55.908;37.880;2023-03-21T08:56:01;19.40;;;9.52;;
76589;SDS011;65471;55.908;37.880;2023-03-21T08:58:28;18.15;;;9.30;;
76589;SDS011;65471;55.908;37.880;2023-03-21T09:00:55;18.55;;;9.93;;
76589;SDS011;65471;55.908;37.880;2023-03-21T09:03:22;17.13;;;9.73;;
76589;SDS011;65471;55.908;37.880;2023-03-21T09:05:51;16.48;;;9.93;;
76589;SDS011;65471;55.908;37.880;2023-03-21T09:08:19;14.00;;;9.68;;
76589;SDS011;65471;55.908;37.880;2023-03-21T09:10:51;10.13;;;8.50;;
76589;SDS011;65471;55.908;37.880;2023-03-21T09:13:18;15.98;;;9.95;;
76589;SDS011;65471;55.908;37.880;2023-03-21T09:15:46;22.30;;;9.30;;
76589;SDS011;65471;55.908;37.880;2023-03-21T09:18:13;14.00;;;9.50;;
76589;SDS011;65471;55.908;37.880;2023-03-21T09:20:41;18.17;;;8.75;;
76589;SDS011;65471;55.908;37.880;2023-03-21T09:23:10;18.25;;;9.73;;
76589;SDS011;65471;55.908;37.880;2023-03-21T09:25:39;25.30;;;9.30;;
76589;SDS011;65471;55.908;37.880;2023-03-21T09:28:06;16.83;;;8.70;;
76589;SDS011;65471;55.908;37.880;2023-03-21T09:30:34;16.33;;;9.68;;
76589;SDS011;65471;55.908;37.880;2023-03-21T09:33:03;13.07;;;9.32;;
76589;SDS011;65471;55.908;37.880;2023-03-21T09:35:44;19.15;;;10.18;;
76589;SDS011;65471;55.908;37.880;2023-03-21T09:38:11;18.75;;;9.95;;
76589;SDS011;65471;55.908;37.880;2023-03-21T09:40:44;22.60;;;10.20;;
76589;SDS011;65471;55.908;37.880;2023-03-21T09:46:17;17.45;;;10.32;;
76589;SDS011;65471;55.908;37.880;2023-03-21T09:48:54;21.48;;;10.05;;
76589;SDS011;65471;55.908;37.880;2023-03-21T09:51:36;16.77;;;9.55;;
76589;SDS011;65471;55.908;37.880;2023-03-21T09:54:10;24.25;;;9.73;;
76589;SDS011;65471;55.908;37.880;2023-03-21T09:56:43;22.95;;;9.60;;
76589;SDS011;65471;55.908;37.880;2023-03-21T10:02:12;16.45;;;10.10;;
76589;SDS011;65471;55.908;37.880;2023-03-21T10:04:58;23.33;;;9.88;;
76589;SDS011;65471;55.908;37.880;2023-03-21T10:07:26;15.90;;;9.32;;
76589;SDS011;65471;55.908;37.880;2023-03-21T10:09:57;22.80;;;10.43;;
76589;SDS011;65471;55.908;37.880;2023-03-21T10:12:26;15.10;;;10.00;;
76589;SDS011;65471;55.908;37.880;2023-03-21T10:14:56;17.77;;;10.65;;
76589;SDS011;65471;55.908;37.880;2023-03-21T10:20:15;22.63;;;11.43;;
76589;SDS011;65471;55.908;37.880;2023-03-21T10:22:39;26.25;;;12.85;;
76589;SDS011;65471;55.908;37.880;2023-03-21T10:25:10;24.35;;;11.45;;
76589;SDS011;65471;55.908;37.880;2023-03-21T10:27:40;31.02;;;11.48;;
76589;SDS011;65471;55.908;37.880;2023-03-21T10:30:08;18.88;;;10.48;;
76589;SDS011;65471;55.908;37.880;2023-03-21T10:32:44;27.42;;;10.63;;
76589;SDS011;65471;55.908;37.880;2023-03-21T10:35:12;18.73;;;10.25;;
76589;SDS011;65471;55.908;37.880;2023-03-21T10:37:39;18.15;;;9.65;;
76589;SDS011;65471;55.908;37.880;2023-03-21T10:40:09;21.10;;;10.27;;
76589;SDS011;65471;55.908;37.880;2023-03-21T10:42:42;13.85;;;8.55;;
76589;SDS011;65471;55.908;37.880;2023-03-21T10:45:16;17.33;;;9.05;;
76589;SDS011;65471;55.908;37.880;2023-03-21T10:47:46;14.07;;;9.23;;
76589;SDS011;65471;55.908;37.880;2023-03-21T10:50:15;14.88;;;9.30;;
76589;SDS011;65471;55.908;37.880;2023-03-21T10:52:49;16.08;;;9.68;;
76589;SDS011;65471;55.908;37.880;2023-03-21T10:55:23;14.15;;;8.95;;
76589;SDS011;65471;55.908;37.880;2023-03-21T10:58:00;18.77;;;8.80;;
76589;SDS011;65471;55.908;37.880;2023-03-21T11:00:33;17.33;;;9.00;;
76589;SDS011;65471;55.908;37.880;2023-03-21T11:03:04;17.02;;;9.55;;
76589;SDS011;65471;55.908;37.880;2023-03-21T11:05:36;14.27;;;9.00;;
76589;SDS011;65471;55.908;37.880;2023-03-21T11:08:06;20.10;;;9.77;;
76589;SDS011;65471;55.908;37.880;2023-03-21T11:10:47;12.95;;;9.15;;
76589;SDS011;65471;55.908;37.880;2023-03-21T11:13:25;13.98;;;8.70;;
76589;SDS011;65471;55.908;37.880;2023-03-21T11:16:05;15.02;;;8.95;;
76589;SDS011;65471;55.908;37.880;2023-03-21T11:18:49;16.00;;;8.90;;
76589;SDS011;65471;55.908;37.880;2023-03-21T11:21:18;12.73;;;9.30;;
76589;SDS011;65471;55.908;37.880;2023-03-21T11:23:47;14.30;;;9.23;;
76589;SDS011;65471;55.908;37.880;2023-03-21T11:26:18;14.32;;;9.77;;
76589;SDS011;65471;55.908;37.880;2023-03-21T11:28:49;16.45;;;9.63;;
76589;SDS011;65471;55.908;37.880;2023-03-21T11:31:19;17.67;;;9.65;;
76589;SDS011;65471;55.908;37.880;2023-03-21T11:33:51;14.20;;;9.30;;
76589;SDS011;65471;55.908;37.880;2023-03-21T11:38:54;15.98;;;9.85;;
76589;SDS011;65471;55.908;37.880;2023-03-21T11:41:26;17.40;;;9.75;;
76589;SDS011;65471;55.908;37.880;2023-03-21T11:43:54;20.38;;;9.32;;
76589;SDS011;65471;55.908;37.880;2023-03-21T11:46:24;17.50;;;9.97;;
76589;SDS011;65471;55.908;37.880;2023-03-21T11:48:53;29.23;;;10.05;;
76589;SDS011;65471;55.908;37.880;2023-03-21T11:51:32;16.40;;;9.00;;
76589;SDS011;65471;55.908;37.880;2023-03-21T11:57:19;11.95;;;9.02;;
76589;SDS011;65471;55.908;37.880;2023-03-21T12:00:04;9.93;;;8.65;;
76589;SDS011;65471;55.908;37.880;2023-03-21T12:05:40;11.00;;;7.97;;
76589;SDS011;65471;55.908;37.880;2023-03-21T12:08:36;14.20;;;7.20;;
76589;SDS011;65471;55.908;37.880;2023-03-21T12:22:33;10.18;;;6.80;;
76589;SDS011;65471;55.908;37.880;2023-03-21T12:25:14;7.13;;;6.40;;
76589;SDS011;65471;55.908;37.880;2023-03-21T12:31:20;10.05;;;6.78;;
76589;SDS011;65471;55.908;37.880;2023-03-21T12:39:37;10.25;;;6.75;;
76589;SDS011;65471;55.908;37.880;2023-03-21T12:44:36;8.98;;;6.05;;
76589;SDS011;65471;55.908;37.880;2023-03-21T12:47:12;10.15;;;5.00;;
76589;SDS011;65471;55.908;37.880;2023-03-21T12:49:47;9.07;;;5.70;;
76589;SDS011;65471;55.908;37.880;2023-03-21T12:52:22;9.07;;;5.88;;
76589;SDS011;65471;55.908;37.880;2023-03-21T12:54:54;11.05;;;6.82;;
76589;SDS011;65471;55.908;37.880;2023-03-21T12:57:45;11.52;;;6.88;;
76589;SDS011;65471;55.908;37.880;2023-03-21T13:01:06;12.85;;;6.63;;
76589;SDS011;65471;55.908;37.880;2023-03-21T13:03:31;7.82;;;5.90;;
76589;SDS011;65471;55.908;37.880;2023-03-21T13:06:09;17.33;;;6.32;;
76589;SDS011;65471;55.908;37.880;2023-03-21T13:08:41;21.05;;;5.88;;
76589;SDS011;65471;55.908;37.880;2023-03-21T13:11:24;10.02;;;6.18;;
76589;SDS011;65471;55.908;37.880;2023-03-21T13:14:00;11.02;;;6.03;;
76589;SDS011;65471;55.908;37.880;2023-03-21T13:16:51;12.77;;;5.57;;
76589;SDS011;65471;55.908;37.880;2023-03-21T13:19:40;10.85;;;6.00;;
76589;SDS011;65471;55.908;37.880;2023-03-21T13:22:21;6.40;;;4.72;;
76589;SDS011;65471;55.908;37.880;2023-03-21T13:25:02;10.35;;;5.47;;
76589;SDS011;65471;55.908;37.880;2023-03-21T13:27:42;10.75;;;5.65;;
76589;SDS011;65471;55.908;37.880;2023-03-21T13:30:18;5.63;;;5.15;;
76589;SDS011;65471;55.908;37.880;2023-03-21T13:33:09;16.02;;;5.93;;
76589;SDS011;65471;55.908;37.880;2023-03-21T13:35:40;10.68;;;5.75;;
76589;SDS011;65471;55.908;37.880;2023-03-21T13:38:21;11.57;;;5.40;;
76589;SDS011;65471;55.908;37.880;2023-03-21T13:46:52;9.25;;;4.90;;
76589;SDS011;65471;55.908;37.880;2023-03-21T13:49:25;7.82;;;5.47;;
76589;SDS011;65471;55.908;37.880;2023-03-21T13:52:00;8.93;;;5.80;;
76589;SDS011;65471;55.908;37.880;2023-03-21T13:54:50;12.55;;;4.53;;
76589;SDS011;65471;55.908;37.880;2023-03-21T14:02:51;14.07;;;6.72;;
76589;SDS011;65471;55.908;37.880;2023-03-21T14:05:22;6.07;;;5.40;;
76589;SDS011;65471;55.908;37.880;2023-03-21T14:07:55;10.80;;;5.43;;
76589;SDS011;65471;55.908;37.880;2023-03-21T14:10:47;19.67;;;6.32;;
76589;SDS011;65471;55.908;37.880;2023-03-21T14:13:19;11.95;;;5.50;;
76589;SDS011;65471;55.908;37.880;2023-03-21T14:15:51;11.95;;;5.75;;
76589;SDS011;65471;55.908;37.880;2023-03-21T14:21:28;17.65;;;7.07;;
76589;SDS011;65471;55.908;37.880;2023-03-21T14:26:48;13.48;;;5.93;;
76589;SDS011;65471;55.908;37.880;2023-03-21T14:29:19;8.13;;;6.03;;
76589;SDS011;65471;55.908;37.880;2023-03-21T14:31:53;8.68;;;5.38;;
76589;SDS011;65471;55.908;37.880;2023-03-21T14:34:22;17.65;;;5.50;;
76589;SDS011;65471;55.908;37.880;2023-03-21T14:36:51;5.50;;;4.68;;
76589;SDS011;65471;55.908;37.880;2023-03-21T14:39:28;10.75;;;6.28;;
76589;SDS011;65471;55.908;37.880;2023-03-21T14:42:00;9.77;;;5.40;;
76589;SDS011;65471;55.908;37.880;2023-03-21T14:47:20;18.90;;;6.03;;
76589;SDS011;65471;55.908;37.880;2023-03-21T14:49:51;14.18;;;5.40;;
76589;SDS011;65471;55.908;37.880;2023-03-21T14:54:55;11.77;;;5.10;;
76589;SDS011;65471;55.908;37.880;2023-03-21T14:57:26;11.27;;;5.40;;
76589;SDS011;65471;55.908;37.880;2023-03-21T14:59:56;9.07;;;5.72;;
76589;SDS011;65471;55.908;37.880;2023-03-21T15:02:30;11.43;;;5.00;;
76589;SDS011;65471;55.908;37.880;2023-03-21T15:05:13;6.03;;;5.50;;
76589;SDS011;65471;55.908;37.880;2023-03-21T15:07:56;17.63;;;6.47;;
76589;SDS011;65471;55.908;37.880;2023-03-21T15:10:29;10.38;;;5.13;;
76589;SDS011;65471;55.908;37.880;2023-03-21T15:13:01;10.70;;;5.20;;
76589;SDS011;65471;55.908;37.880;2023-03-21T15:15:38;15.73;;;6.10;;
76589;SDS011;65471;55.908;37.880;2023-03-21T15:18:07;9.00;;;5.50;;
76589;SDS011;65471;55.908;37.880;2023-03-21T15:20:40;9.43;;;5.78;;
76589;SDS011;65471;55.908;37.880;2023-03-21T15:23:21;19.38;;;6.53;;
76589;SDS011;65471;55.908;37.880;2023-03-21T15:25:54;9.88;;;6.05;;
76589;SDS011;65471;55.908;37.880;2023-03-21T15:28:21;7.57;;;5.93;;
76589;SDS011;65471;55.908;37.880;2023-03-21T15:30:48;13.65;;;6.43;;
76589;SDS011;65471;55.908;37.880;2023-03-21T15:33:17;13.27;;;6.28;;
76589;SDS011;65471;55.908;37.880;2023-03-21T15:35:55;17.45;;;6.50;;
76589;SDS011;65471;55.908;37.880;2023-03-21T15:38:28;10.93;;;6.03;;
76589;SDS011;65471;55.908;37.880;2023-03-21T15:43:42;14.10;;;6.60;;
76589;SDS011;65471;55.908;37.880;2023-03-21T15:46:15;10.80;;;6.60;;
76589;SDS011;65471;55.908;37.880;2023-03-21T15:49:06;18.07;;;6.33;;
76589;SDS011;65471;55.908;37.880;2023-03-21T15:51:34;16.83;;;6.60;;
76589;SDS011;65471;55.908;37.880;2023-03-21T15:54:01;13.23;;;6.28;;
76589;SDS011;65471;55.908;37.880;2023-03-21T15:56:31;19.73;;;6.22;;
76589;SDS011;65471;55.908;37.880;2023-03-21T15:59:01;12.57;;;5.88;;
76589;SDS011;65471;55.908;37.880;2023-03-21T16:01:30;13.95;;;6.65;;
76589;SDS011;65471;55.908;37.880;2023-03-21T16:04:08;19.10;;;6.10;;
76589;SDS011;65471;55.908;37.880;2023-03-21T16:06:36;22.38;;;6.40;;
76589;SDS011;65471;55.908;37.880;2023-03-21T16:11:41;9.25;;;6.15;;
76589;SDS011;65471;55.908;37.880;2023-03-21T16:14:13;10.35;;;5.80;;
76589;SDS011;65471;55.908;37.880;2023-03-21T16:16:40;12.48;;;5.72;;
76589;SDS011;65471;55.908;37.880;2023-03-21T16:19:07;12.13;;;5.00;;
76589;SDS011;65471;55.908;37.880;2023-03-21T16:21:33;12.02;;;5.20;;
76589;SDS011;65471;55.908;37.880;2023-03-21T16:24:06;10.07;;;5.72;;
76589;SDS011;65471;55.908;37.880;2023-03-21T16:26:37;9.20;;;6.00;;
76589;SDS011;65471;55.908;37.880;2023-03-21T16:29:09;11.68;;;5.88;;